Data for 04/01/2006

Time Sea-Level Adjusted Pressure Absolute Pressure Temperature Relative Humidity Dew Point   
(mb) (inHg) (mb) (inHg) (C) (F) (%) (C) (F)
00:05 1011 29.85 840 24.81 4.3 39.8 66 -1.4 29.5
00:10 1011 29.85 840 24.81 4.3 39.7 66 -1.4 29.5
00:15 1011 29.85 840 24.81 4.3 39.8 66 -1.5 29.3
00:20 1011 29.85 840 24.81 4.4 40 65 -1.5 29.4
00:25 1011 29.85 840 24.81 4.3 39.8 67 -1.2 29.8
00:30 1011 29.85 840 24.81 4.2 39.5 67 -1.4 29.5
00:35 1011 29.85 840 24.81 4.2 39.6 66 -1.5 29.3
00:40 1011 29.85 840 24.81 4.4 40 66 -1.4 29.4
00:45 1011 29.85 840 24.81 4.5 40.2 65 -1.4 29.4
00:50 1011 29.85 840 24.81 4.4 39.9 67 -1.3 29.7
00:55 1011 29.85 840 24.81 4.2 39.5 68 -1.2 29.8
01:00 1011 29.85 840 24.81 3.8 38.9 69 -1.3 29.7
01:05 1010 29.83 840 24.81 4 39.1 67 -1.5 29.2
01:10 1010 29.83 840 24.81 4.1 39.4 68 -1.3 29.6
01:15 1011 29.85 840 24.81 4.1 39.3 68 -1.2 29.8
01:20 1010 29.83 840 24.81 4 39.2 67 -1.5 29.3
01:25 1010 29.83 840 24.81 4.2 39.6 64 -2 28.5
01:30 1010 29.83 840 24.81 4.7 40.5 62 -1.8 28.7
01:35 1010 29.83 840 24.81 4.4 39.9 68 -1 30.2
01:40 1010 29.83 840 24.81 3.6 38.6 71 -1.2 29.8
01:45 1010 29.83 840 24.81 3.6 38.4 70 -1.4 29.4
01:50 1010 29.83 840 24.81 3.6 38.4 72 -1 30.1
01:55 1010 29.83 839 24.78 3.4 38 72 -1.1 29.9
02:00 1010 29.83 839 24.78 3.3 38 70 -1.6 29.2
02:05 1010 29.83 839 24.78 3.5 38.2 72 -1.1 30
02:10 1010 29.83 839 24.78 3.1 37.7 73 -1.3 29.7
02:15 1010 29.83 839 24.78 3.2 37.8 71 -1.4 29.4
02:20 1010 29.83 839 24.78 3.3 37.9 73 -1.1 30
02:25 1010 29.83 839 24.78 3.1 37.5 73 -1.4 29.5
02:30 1010 29.83 839 24.78 3.3 37.9 71 -1.4 29.4
02:35 1010 29.83 839 24.78 3.1 37.5 74 -1.2 29.8
02:40 1010 29.83 839 24.78 3.1 37.5 72 -1.5 29.4
02:45 1010 29.83 839 24.78 3 37.4 74 -1.2 29.8
02:50 1010 29.83 839 24.78 2.9 37.2 73 -1.5 29.3
02:55 1010 29.83 839 24.78 2.7 36.9 73 -1.6 29.1
03:00 1010 29.83 839 24.78 2.9 37.2 72 -1.6 29.1
03:05 1010 29.83 839 24.78 2.7 36.9 72 -1.8 28.8
03:10 1010 29.83 839 24.78 3 37.4 71 -1.7 29
03:15 1010 29.83 839 24.78 2.8 37.1 71 -1.9 28.6
03:20 1010 29.83 839 24.78 3 37.4 71 -1.8 28.8
03:25 1010 29.83 839 24.78 2.5 36.6 73 -1.7 28.9
03:30 1010 29.83 839 24.78 2.6 36.7 72 -1.9 28.6
03:35 1010 29.83 839 24.78 2.6 36.7 72 -2 28.3
03:40 1010 29.83 839 24.78 2.9 37.2 71 -1.9 28.6
03:45 1010 29.83 839 24.78 2.9 37.2 71 -1.8 28.7
03:50 1010 29.83 839 24.78 2.5 36.5 73 -1.8 28.8
03:55 1010 29.83 839 24.78 2.3 36.1 73 -2 28.4
04:00 1010 29.83 839 24.78 2.3 36.2 74 -1.9 28.6
04:05 1010 29.83 839 24.78 2.3 36.1 74 -1.9 28.6
04:10 1010 29.83 839 24.78 2.4 36.4 73 -1.9 28.5
04:15 1010 29.83 839 24.78 2.6 36.7 72 -1.9 28.5
04:20 1010 29.83 839 24.78 2.7 36.8 72 -1.9 28.6
04:25 1010 29.83 839 24.78 2.3 36.2 73 -2 28.4
04:30 1010 29.83 839 24.78 2.5 36.6 71 -2.1 28.2
04:35 1010 29.83 839 24.78 2.7 36.8 72 -1.9 28.6
04:40 1010 29.83 839 24.78 2.5 36.4 74 -1.8 28.8
04:45 1010 29.83 839 24.78 2.5 36.5 72 -2.1 28.2
04:50 1010 29.83 839 24.78 2.7 36.8 71 -2.1 28.2
04:55 1010 29.83 839 24.78 2.8 37 72 -1.8 28.7
05:00 1010 29.83 839 24.78 2.3 36.1 73 -2 28.4
05:05 1010 29.83 839 24.78 2.3 36.2 73 -2.1 28.3
05:10 1010 29.83 839 24.78 2.6 36.6 73 -1.9 28.6
05:15 1010 29.83 839 24.78 2.6 36.6 72 -2 28.5
05:20 1010 29.83 839 24.78 2.5 36.6 73 -1.8 28.7
05:25 1010 29.83 839 24.78 2.3 36.1 75 -1.7 28.9
05:30 1010 29.83 839 24.78 2.3 36.1 74 -1.9 28.6
05:35 1010 29.83 839 24.78 2.3 36.1 74 -1.9 28.5
05:40 1010 29.83 839 24.78 2.4 36.4 73 -1.9 28.6
05:45 1010 29.83 839 24.78 2.5 36.6 72 -1.9 28.5
05:50 1010 29.83 839 24.78 2.7 36.9 72 -1.9 28.6
05:55 1010 29.83 839 24.78 2.6 36.6 73 -1.7 28.9
06:00 1010 29.83 839 24.78 2 35.7 76 -1.8 28.8
06:05 1010 29.83 839 24.78 1.9 35.4 74 -2.2 28.1
06:10 1010 29.83 839 24.78 2.2 35.9 74 -1.9 28.6
06:15 1010 29.83 839 24.78 2.2 36 74 -2 28.4
06:20 1010 29.83 839 24.78 2.2 36 74 -1.9 28.6
06:25 1010 29.83 839 24.78 2.2 36 74 -1.8 28.7
06:30 1010 29.83 839 24.78 2.5 36.6 74 -1.7 28.9
06:35 1010 29.83 839 24.78 2.8 37 72 -1.7 28.9
06:40 1010 29.83 839 24.78 2.7 36.8 74 -1.4 29.4
06:45 1010 29.83 839 24.78 3.2 37.7 72 -1.3 29.6
06:50 1010 29.83 839 24.78 4 39.3 68 -1.3 29.6
06:55 1010 29.83 839 24.78 4 39.3 70 -1 30.2
07:00 1010 29.83 839 24.78 3.8 38.8 72 -0.8 30.5
07:05 1010 29.83 839 24.78 4 39.2 72 -0.6 30.9
07:10 1010 29.83 840 24.81 4.5 40.2 71 -0.2 31.6
07:15 1010 29.83 840 24.81 4.7 40.5 69 -0.4 31.3
07:20 1010 29.83 839 24.78 5.1 41.2 68 -0.2 31.6
07:25 1010 29.83 839 24.78 5.6 42.1 67 -0.1 31.9
07:30 1010 29.83 839 24.78 5.9 42.5 66 -0.1 31.8
07:35 1010 29.83 839 24.78 5.6 42.2 69 0.4 32.7
07:40 1010 29.83 839 24.78 5.2 41.4 70 0.1 32.2
07:45 1010 29.83 840 24.81 5 41 71 0.2 32.3
07:50 1010 29.83 839 24.78 5 40.9 70 -0 31.9
07:55 1010 29.83 839 24.78 5.1 41.1 68 -0.3 31.5
08:00 1010 29.83 839 24.78 5.1 41.2 68 -0.2 31.6
08:05 1010 29.83 839 24.78 5.9 42.7 64 -0.3 31.4
08:10 1010 29.83 839 24.78 6.4 43.5 65 0.4 32.7
08:15 1010 29.83 839 24.78 6.6 44 62 -0.2 31.7
08:20 1010 29.83 839 24.78 6.8 44.3 63 0.2 32.4
08:25 1010 29.83 839 24.78 6.5 43.6 63 -0 31.9
08:30 1010 29.83 839 24.78 7.2 44.9 59 -0.2 31.6
08:35 1010 29.83 839 24.78 6.8 44.2 63 0.3 32.6
08:40 1010 29.83 839 24.78 6.7 44.1 61 -0.2 31.6
08:45 1010 29.83 839 24.78 6.6 43.9 63 0 32
08:50 1010 29.83 839 24.78 6.3 43.4 64 -0.1 31.9
08:55 1010 29.83 839 24.78 7 44.5 61 0 32.1
09:00 1010 29.83 839 24.78 7.6 45.7 58 -0.2 31.7
09:05 1010 29.83 839 24.78 7.8 46 58 0 32
09:10 1010 29.83 839 24.78 8.1 46.6 57 0.1 32.2
09:15 1010 29.83 839 24.78 7.1 44.8 61 0.1 32.1
09:20 1010 29.83 839 24.78 7.1 44.8 60 -0 31.9
09:25 1010 29.83 839 24.78 7.1 44.8 60 -0 32
09:30 1010 29.83 839 24.78 7.1 44.7 60 -0.1 31.9
09:35 1010 29.83 839 24.78 7 44.6 62 0.2 32.3
09:40 1010 29.83 839 24.78 6.8 44.3 63 0.3 32.5
09:45 1010 29.83 839 24.78 6.8 44.2 63 0.2 32.4
09:50 1010 29.83 839 24.78 7.1 44.7 60 -0.1 31.8
09:55 1010 29.83 839 24.78 7.7 45.8 59 0.1 32.2
10:00 1010 29.83 839 24.78 7.9 46.3 59 0.5 32.9
10:05 1010 29.83 839 24.78 8.4 47.2 56 0.3 32.5
10:10 1010 29.83 839 24.78 8.7 47.7 55 0.1 32.2
10:15 1010 29.83 839 24.78 9.5 49 49 -0.6 31
10:20 1010 29.83 839 24.78 9.8 49.6 48 -0.6 30.9
10:25 1010 29.83 839 24.78 9.8 49.6 49 -0.3 31.4
10:30 1010 29.83 839 24.78 9.9 49.9 49 -0.1 31.7
10:35 1010 29.83 839 24.78 10 50 49 -0.2 31.6
10:40 1010 29.83 839 24.78 10 49.9 50 -0 31.9
10:45 1010 29.83 839 24.78 10.3 50.5 46 -0.7 30.7
10:50 1010 29.83 839 24.78 10.4 50.7 46 -0.6 30.8
10:55 1010 29.83 839 24.78 10.5 50.9 45 -0.8 30.5
11:00 1010 29.83 839 24.78 10.7 51.3 45 -0.8 30.6
11:05 1010 29.83 839 24.78 10.6 51.1 45 -0.9 30.4
11:10 1010 29.83 839 24.78 10.4 50.8 45 -0.9 30.4
11:15 1010 29.83 839 24.78 10.2 50.4 46 -1 30.2
11:20 1010 29.83 839 24.78 10.2 50.4 45 -1 30.2
11:25 1010 29.83 839 24.78 9.8 49.7 48 -0.6 30.8
11:30 1010 29.83 839 24.78 8.1 46.5 54 -0.6 30.9
11:35 1010 29.83 839 24.78 7.3 45.1 65 1.2 34.1
11:40 1010 29.83 839 24.78 6.3 43.4 69 1.1 34.1
11:45 1010 29.83 839 24.78 6.3 43.4 68 0.8 33.5
11:50 1010 29.83 839 24.78 6.8 44.2 68 1.3 34.4
11:55 1010 29.83 839 24.78 7.7 45.9 59 0.4 32.7
12:00 1010 29.83 839 24.78 8.4 47.1 59 0.9 33.7
12:05 1010 29.83 839 24.78 8.8 47.9 59 1.2 34.2
12:10 1010 29.83 839 24.78 9.7 49.5 54 0.9 33.7
12:15 1009 29.8 839 24.78 10.4 50.7 53 1.3 34.3
12:20 1009 29.8 839 24.78 10.4 50.6 52 0.9 33.6
12:25 1009 29.8 838 24.75 10.6 51.1 48 0 32.1
12:30 1009 29.8 838 24.75 10.9 51.6 43 -1.3 29.6
12:35 1009 29.8 838 24.75 10.9 51.5 44 -0.9 30.3
12:40 1009 29.8 838 24.75 11 51.8 43 -0.9 30.3
12:45 1009 29.8 838 24.75 11.7 53.1 41 -1.1 30.1
12:50 1009 29.8 839 24.78 12.1 53.8 42 -0.5 31.1
12:55 1009 29.8 839 24.78 11.8 53.3 41 -0.9 30.3
13:00 1009 29.8 838 24.75 11.8 53.2 45 0.3 32.5
13:05 1009 29.8 838 24.75 9.9 49.8 52 0.5 33
13:10 1009 29.8 838 24.75 9.5 49.1 50 -0.3 31.4
13:15 1009 29.8 838 24.75 10.4 50.6 44 -1.3 29.6
13:20 1009 29.8 838 24.75 11 51.8 46 -0.2 31.7
13:25 1009 29.8 838 24.75 10.2 50.3 48 -0.3 31.5
13:30 1009 29.8 838 24.75 9.8 49.7 47 -1 30.2
13:35 1009 29.8 838 24.75 9.9 49.9 51 0.4 32.8
13:40 1009 29.8 838 24.75 9.6 49.3 52 0.2 32.4
13:45 1009 29.8 838 24.75 9.8 49.6 46 -1.4 29.5
13:50 1009 29.8 838 24.75 10.3 50.5 40 -2.6 27.3
13:55 1009 29.8 838 24.75 11.2 52.2 38 -2.5 27.5
14:00 1009 29.8 838 24.75 11.1 52 38 -2.8 27
14:05 1009 29.8 838 24.75 11.5 52.6 38 -2.3 27.8
14:10 1009 29.8 838 24.75 11 51.8 36 -3.6 25.5
14:15 1009 29.8 838 24.75 11 51.7 34 -4.3 24.3
14:20 1009 29.8 838 24.75 11.3 52.3 35 -3.8 25.2
14:25 1009 29.8 838 24.75 11.3 52.3 34 -4 24.8
14:30 1009 29.8 838 24.75 11.8 53.3 35 -3.2 26.2
14:35 1009 29.8 838 24.75 11.7 53 35 -3.2 26.2
14:40 1009 29.8 838 24.75 11.4 52.6 35 -3.4 25.9
14:45 1009 29.8 838 24.75 11.3 52.3 35 -3.6 25.5
14:50 1008 29.77 838 24.75 12.1 53.8 34 -3.3 26
14:55 1008 29.77 838 24.75 11.9 53.3 33 -3.7 25.3
15:00 1008 29.77 838 24.75 12.2 53.9 33 -3.6 25.5
15:05 1008 29.77 838 24.75 12.1 53.8 31 -4.4 24.1
15:10 1008 29.77 838 24.75 11.8 53.3 31 -4.6 23.7
15:15 1008 29.77 838 24.75 12.5 54.6 29 -4.8 23.4
15:20 1008 29.77 838 24.75 13.1 55.7 29 -4.4 24
15:25 1008 29.77 838 24.75 12.4 54.3 30 -4.4 24
15:30 1008 29.77 838 24.75 12.2 53.9 30 -4.9 23.3
15:35 1008 29.77 838 24.75 12.5 54.5 30 -4.5 23.9
15:40 1008 29.77 838 24.75 12.2 53.9 31 -4.6 23.7
15:45 1008 29.77 837 24.72 12.8 55 28 -5 23
15:50 1008 29.77 837 24.72 12.8 55 27 -5.6 21.9
15:55 1008 29.77 837 24.72 12.7 54.8 28 -5.3 22.5
16:00 1008 29.77 837 24.72 12.5 54.6 30 -4.4 24
16:05 1008 29.77 838 24.75 11.9 53.5 34 -3.4 25.8
16:10 1008 29.77 837 24.72 11.3 52.3 34 -3.9 24.9
16:15 1008 29.77 837 24.72 11.5 52.7 33 -4.1 24.7
16:20 1008 29.77 837 24.72 11.5 52.7 34 -3.7 25.3
16:25 1008 29.77 838 24.75 11.3 52.4 34 -4 24.8
16:30 1008 29.77 838 24.75 11.5 52.7 31 -4.9 23.2
16:35 1008 29.77 838 24.75 11.3 52.3 32 -4.8 23.4
16:40 1008 29.77 838 24.75 10.9 51.7 32 -5 22.9
16:45 1008 29.77 838 24.75 10.8 51.4 32 -5.2 22.6
16:50 1008 29.77 838 24.75 10.6 51.2 37 -3.6 25.6
16:55 1008 29.77 838 24.75 10.5 50.8 35 -4.2 24.4
17:00 1009 29.8 838 24.75 10.4 50.7 35 -4.2 24.5
17:05 1009 29.8 838 24.75 10.3 50.6 35 -4.5 23.9
17:10 1009 29.8 838 24.75 10.4 50.6 34 -4.8 23.4
17:15 1009 29.8 838 24.75 10.4 50.7 38 -3.4 25.9
17:20 1009 29.8 838 24.75 10.3 50.6 37 -3.8 25.1
17:25 1009 29.8 838 24.75 10.3 50.5 36 -4.2 24.5
17:30 1009 29.8 838 24.75 10.2 50.4 33 -5.3 22.5
17:35 1009 29.8 838 24.75 10 50.1 32 -5.9 21.4
17:40 1009 29.8 838 24.75 9.8 49.7 34 -5.2 22.6
17:45 1009 29.8 838 24.75 9.7 49.4 36 -4.8 23.4
17:50 1009 29.8 838 24.75 9.4 49 35 -5.1 22.7
17:55 1009 29.8 838 24.75 9.4 48.9 34 -5.7 21.7
18:00 1009 29.8 838 24.75 9.1 48.3 39 -4 24.8
18:05 1009 29.8 838 24.75 8.7 47.7 37 -5.2 22.6
18:10 1009 29.8 838 24.75 8.8 47.9 34 -6.1 21
18:15 1009 29.8 838 24.75 8.9 48 38 -4.8 23.4
18:20 1009 29.8 839 24.78 8.5 47.3 37 -5.5 22
18:25 1009 29.8 839 24.78 8.4 47 35 -6.3 20.7
18:30 1010 29.83 839 24.78 8.4 47.1 36 -6 21.3
18:35 1010 29.83 839 24.78 8.4 47 35 -6.4 20.5
18:40 1010 29.83 839 24.78 7.9 46.2 37 -6 21.1
18:45 1010 29.83 839 24.78 7.1 44.8 36 -7 19.5
18:50 1010 29.83 839 24.78 6.8 44.3 35 -7.7 18.1
18:55 1010 29.83 839 24.78 6.6 43.9 36 -7.6 18.4
19:00 1010 29.83 839 24.78 6.7 44 33 -8.4 17
19:05 1010 29.83 839 24.78 6.8 44.2 32 -9 15.8
19:10 1010 29.83 839 24.78 6.8 44.3 32 -8.6 16.4
19:15 1010 29.83 839 24.78 6.7 44.1 34 -8.1 17.4
19:20 1010 29.83 839 24.78 6.8 44.2 32 -8.7 16.3
19:25 1010 29.83 839 24.78 6.9 44.5 31 -9.2 15.4
19:30 1010 29.83 839 24.78 7 44.6 31 -8.8 16.1
19:35 1010 29.83 840 24.81 6.9 44.5 30 -9.6 14.7
19:40 1011 29.85 840 24.81 6.9 44.5 32 -8.5 16.7
19:45 1011 29.85 840 24.81 6.6 44 34 -8.2 17.3
19:50 1011 29.85 840 24.81 6.6 43.9 35 -8 17.7
19:55 1011 29.85 840 24.81 6.3 43.4 37 -7.4 18.7
20:00 1011 29.85 841 24.83 6.1 43 38 -7.2 19
20:05 1011 29.85 841 24.83 6.1 42.9 36 -7.9 17.8
20:10 1012 29.88 841 24.83 6.1 42.9 37 -7.5 18.4
20:15 1012 29.88 841 24.83 5.7 42.3 40 -6.8 19.7
20:20 1012 29.88 841 24.83 5.7 42.3 31 -10.3 13.4
20:25 1012 29.88 841 24.83 5.9 42.6 32 -9.6 14.8
20:30 1012 29.88 841 24.83 5.6 42.1 32 -10 14
20:35 1012 29.88 841 24.83 5.1 41.2 35 -9.2 15.4
20:40 1012 29.88 841 24.83 4.9 40.9 35 -9.3 15.3
20:45 1012 29.88 841 24.83 5 41 32 -10.5 13
20:50 1012 29.88 841 24.83 5.1 41.2 33 -10 14
20:55 1012 29.88 841 24.83 4.9 40.9 31 -11 12.3
21:00 1012 29.88 841 24.83 4.8 40.6 34 -9.7 14.5
21:05 1012 29.88 842 24.86 4.5 40 35 -9.7 14.6
21:10 1013 29.91 842 24.86 4.4 39.9 37 -9.1 15.6
21:15 1013 29.91 842 24.86 4.4 39.8 36 -9.3 15.2
21:20 1013 29.91 842 24.86 4.3 39.7 35 -10 14.1
21:25 1013 29.91 842 24.86 4.1 39.3 39 -8.7 16.3
21:30 1013 29.91 842 24.86 4.2 39.5 33 -10.6 13
21:35 1013 29.91 842 24.86 4.3 39.7 34 -10.1 13.8
21:40 1013 29.91 842 24.86 4.1 39.5 35 -9.9 14.2
21:45 1013 29.91 842 24.86 3.9 39 37 -9.5 14.9
21:50 1013 29.91 842 24.86 3.8 38.9 33 -11.2 11.9
21:55 1013 29.91 842 24.86 4.1 39.3 34 -10.4 13.3
22:00 1013 29.91 842 24.86 3.9 39 38 -9.1 15.6
22:05 1013 29.91 842 24.86 3.7 38.7 35 -10.5 13.2
22:10 1013 29.91 842 24.86 4.1 39.3 33 -10.7 12.7
22:15 1013 29.91 842 24.86 3.9 39.1 36 -10 14
22:20 1013 29.91 842 24.86 3.8 38.8 34 -10.7 12.8
22:25 1013 29.91 842 24.86 3.7 38.6 35 -10.5 13.1
22:30 1013 29.91 842 24.86 3.7 38.6 34 -10.8 12.6
22:35 1013 29.91 842 24.86 3.7 38.6 34 -10.6 12.8
22:40 1013 29.91 842 24.86 3.6 38.4 35 -10.5 13.1
22:45 1013 29.91 842 24.86 3.2 37.8 41 -8.9 15.9
22:50 1013 29.91 842 24.86 2.9 37.2 41 -9.2 15.4
22:55 1013 29.91 842 24.86 3 37.4 41 -9 15.8
23:00 1013 29.91 842 24.86 2.9 37.2 43 -8.5 16.6
23:05 1013 29.91 842 24.86 2.9 37.2 43 -8.6 16.5
23:10 1013 29.91 843 24.89 2.8 37.1 45 -7.9 17.7
23:15 1013 29.91 843 24.89 2.6 36.7 47 -7.6 18.4
23:20 1014 29.94 843 24.89 2.5 36.5 48 -7.5 18.4
23:25 1014 29.94 843 24.89 2.5 36.5 47 -7.6 18.3
23:30 1014 29.94 843 24.89 2.5 36.5 49 -7.1 19.2
23:35 1014 29.94 843 24.89 2.5 36.5 51 -6.6 20.1
23:40 1014 29.94 843 24.89 2.5 36.5 52 -6.4 20.5
23:45 1014 29.94 843 24.89 2.5 36.6 52 -6.3 20.7
23:50 1014 29.94 843 24.89 2.5 36.4 54 -5.9 21.4
23:55 1014 29.94 843 24.89 2.4 36.2 54 -6 21.3
24:00 1014 29.94 844 24.92 2.3 36.2 56 -5.5 22